Time;durP1;ratioP1;P1;durP2;ratioP2;P2;SDS_P1;SDS_P2;PMS_P1;PMS_P2;Temp;Humidity;BMP_temperature;BMP_pressure;BME280_temperature;BME280_humidity;BME280_pressure;Samples;Min_cycle;Max_cycle;Signal;HPM_P1;HPM_P2
2022/06/07 00:00:59;;;;;;;2.27;1.75;;;;;;;15.31;61.25;100386.95;1773054;80;21031;-69
2022/06/07 00:03:26;;;;;;;5.55;2.10;;;;;;;15.30;61.37;100383.12;1747916;80;22234;-69
2022/06/07 00:05:53;;;;;;;3.10;2.02;;;;;;;15.26;61.39;100390.58;1773018;80;20972;-69
2022/06/07 00:08:20;;;;;;;3.55;2.40;;;;;;;15.22;61.42;100385.69;1771798;80;21003;-70
2022/06/07 00:10:49;;;;;;;5.40;3.45;;;;;;;15.15;61.50;100382.33;1773758;80;20977;-69
2022/06/07 00:13:17;;;;;;;9.20;6.03;;;;;;;15.09;61.74;100383.41;1784196;79;20928;-69
2022/06/07 00:15:45;;;;;;;7.75;5.40;;;;;;;15.03;61.96;100388.83;1774617;80;22397;-70
2022/06/07 00:18:11;;;;;;;10.70;6.47;;;;;;;14.98;62.09;100391.61;1787806;80;20973;-70
2022/06/07 00:20:40;;;;;;;7.42;5.70;;;;;;;14.93;62.16;100388.55;1783257;80;21024;-70
2022/06/07 00:23:11;;;;;;;10.95;6.25;;;;;;;14.88;62.21;100388.52;1786504;79;21115;-69
2022/06/07 00:25:39;;;;;;;9.55;6.67;;;;;;;14.82;62.30;100388.27;1773715;79;21034;-69
2022/06/07 00:28:06;;;;;;;13.03;9.23;;;;;;;14.77;62.46;100385.23;1783732;79;22347;-69
2022/06/07 00:30:33;;;;;;;17.48;10.45;;;;;;;14.75;62.62;100385.36;1767865;79;20987;-69
2022/06/07 00:33:00;;;;;;;17.27;10.65;;;;;;;14.73;62.78;100387.33;1775494;80;21070;-69
2022/06/07 00:35:27;;;;;;;15.45;9.73;;;;;;;14.70;62.85;100388.13;1767029;81;20988;-69
2022/06/07 00:37:53;;;;;;;14.33;10.00;;;;;;;14.66;62.90;100390.23;1796157;79;21024;-69
2022/06/07 00:40:20;;;;;;;12.63;8.90;;;;;;;14.66;63.00;100392.05;1767987;79;21805;-71
2022/06/07 00:42:47;;;;;;;13.88;10.00;;;;;;;14.65;63.03;100383.73;1773316;79;20917;-70
2022/06/07 00:45:17;;;;;;;18.23;10.90;;;;;;;14.62;63.11;100384.88;1765414;79;20922;-71
2022/06/07 00:47:47;;;;;;;20.25;14.45;;;;;;;14.59;63.20;100385.18;1769464;79;21413;-70
2022/06/07 00:50:30;;;;;;;23.12;14.90;;;;;;;14.56;63.40;100392.94;1792667;78;20940;-69
2022/06/07 00:52:59;;;;;;;20.40;13.93;;;;;;;14.53;63.55;100389.25;1771861;79;22314;-69
2022/06/07 00:55:28;;;;;;;29.95;19.65;;;;;;;14.51;63.70;100391.22;1776056;79;20941;-69
2022/06/07 00:57:58;;;;;;;41.98;27.85;;;;;;;14.48;63.80;100386.70;1768433;79;20954;-70
2022/06/07 01:00:32;;;;;;;42.88;28.50;;;;;;;14.45;63.89;100384.32;1778843;79;21420;-69
2022/06/07 01:02:59;;;;;;;43.52;27.02;;;;;;;14.43;63.97;100381.78;1771631;79;21502;-70
2022/06/07 01:05:26;;;;;;;35.50;22.58;;;;;;;14.42;63.92;100384.59;1764149;80;22184;-70
2022/06/07 01:10:46;;;;;;;36.33;23.67;;;;;;;14.30;64.33;100380.79;1771478;79;21458;-69
2022/06/07 01:13:21;;;;;;;33.02;22.15;;;;;;;14.23;64.57;100383.67;1767861;79;20985;-69
2022/06/07 01:15:48;;;;;;;30.20;21.30;;;;;;;14.18;64.69;100381.09;1792656;79;21343;-69
2022/06/07 01:18:16;;;;;;;24.35;17.15;;;;;;;14.16;64.80;100383.90;1759387;81;22234;-69
2022/06/07 01:20:44;;;;;;;17.02;13.08;;;;;;;14.15;64.76;100374.26;1767970;79;20956;-70
2022/06/07 01:23:10;;;;;;;17.25;12.35;;;;;;;14.12;64.79;100377.70;1768097;79;21063;-69
2022/06/07 01:25:39;;;;;;;20.30;13.18;;;;;;;14.08;64.86;100370.98;1727236;81;21063;-69
2022/06/07 01:28:06;;;;;;;22.67;15.50;;;;;;;14.04;64.94;100369.13;1795688;79;20932;-69
2022/06/07 01:30:33;;;;;;;20.75;15.03;;;;;;;14.01;65.23;100367.61;1763560;81;21887;-69
2022/06/07 01:33:00;;;;;;;24.60;17.75;;;;;;;14.02;65.49;100371.09;1769647;79;21007;-70
2022/06/07 01:35:26;;;;;;;21.85;17.07;;;;;;;14.00;65.50;100371.24;1756471;79;20996;-70
2022/06/07 01:37:53;;;;;;;23.95;17.85;;;;;;;13.97;65.54;100371.51;1766512;79;21024;-69
2022/06/07 01:42:58;;;;;;;24.43;18.02;;;;;;;13.92;65.75;100378.25;1688098;79;21010;-71
2022/06/07 01:45:25;;;;;;;22.73;15.93;;;;;;;13.90;65.92;100378.89;1795455;79;20996;-69
2022/06/07 01:47:52;;;;;;;20.80;15.40;;;;;;;13.89;65.95;100384.66;1767573;81;20979;-69
2022/06/07 01:50:19;;;;;;;20.08;14.33;;;;;;;13.86;66.02;100387.61;1793659;79;21019;-70
2022/06/07 01:52:45;;;;;;;17.45;12.95;;;;;;;13.83;66.12;100388.39;1761191;80;20980;-69
2022/06/07 01:55:15;;;;;;;19.92;14.78;;;;;;;13.80;66.30;100392.18;1768471;79;22025;-70
2022/06/07 01:58:01;;;;;;;18.95;13.05;;;;;;;13.79;66.34;100386.50;1767836;79;20993;-69
2022/06/07 02:00:28;;;;;;;17.12;12.75;;;;;;;13.76;66.28;100386.79;1775195;79;20930;-69
2022/06/07 02:02:56;;;;;;;15.80;12.37;;;;;;;13.71;66.38;100390.38;1772692;79;20952;-69
2022/06/07 02:05:22;;;;;;;17.00;11.18;;;;;;;13.66;66.49;100383.31;1753214;79;21004;-70
2022/06/07 02:07:50;;;;;;;11.65;8.00;;;;;;;13.65;66.61;100395.74;1778113;79;21806;-69
2022/06/07 02:10:20;;;;;;;9.63;6.72;;;;;;;13.63;66.72;100391.56;1783934;79;38229;-69
2022/06/07 02:12:46;;;;;;;13.75;8.88;;;;;;;13.61;66.86;100397.02;1773719;79;21692;-70
2022/06/07 02:15:13;;;;;;;17.48;11.18;;;;;;;13.60;66.98;100399.30;1768870;79;21008;-69
2022/06/07 02:17:40;;;;;;;15.53;10.60;;;;;;;13.59;67.08;100396.78;1769091;79;21075;-69
2022/06/07 02:20:25;;;;;;;14.73;8.90;;;;;;;13.56;67.24;100393.94;1773801;79;21962;-69
2022/06/07 02:22:54;;;;;;;9.63;6.75;;;;;;;13.56;67.33;100399.23;1793119;79;21452;-69
2022/06/07 02:25:21;;;;;;;18.15;12.35;;;;;;;13.56;67.56;100401.06;1764212;79;21403;-70
2022/06/07 02:27:47;;;;;;;18.82;13.83;;;;;;;13.57;67.76;100398.26;1775864;80;21030;-69
2022/06/07 02:30:13;;;;;;;19.87;13.28;;;;;;;13.60;67.92;100397.97;1765786;80;21466;-69
2022/06/07 02:32:40;;;;;;;15.80;11.05;;;;;;;13.63;68.04;100396.37;1776615;80;21908;-72
2022/06/07 02:35:07;;;;;;;18.15;12.65;;;;;;;13.67;68.15;100394.27;1792982;80;21384;-69
2022/06/07 02:37:35;;;;;;;35.35;23.87;;;;;;;13.69;68.25;100394.47;1769222;80;20964;-70
2022/06/07 02:40:03;;;;;;;50.28;34.10;;;;;;;13.72;68.43;100396.03;1785734;80;21035;-70
2022/06/07 02:42:32;;;;;;;49.00;32.40;;;;;;;13.73;68.61;100399.03;1771359;80;21032;-73
2022/06/07 02:44:59;;;;;;;55.28;35.10;;;;;;;13.75;68.81;100399.22;1781002;80;21901;-69
2022/06/07 02:47:25;;;;;;;51.35;31.95;;;;;;;13.79;69.02;100398.94;1781109;80;21001;-71
2022/06/07 02:49:54;;;;;;;52.45;30.80;;;;;;;13.83;69.10;100393.70;1769138;79;21001;-69
2022/06/07 02:52:20;;;;;;;45.70;25.85;;;;;;;13.88;69.11;100399.41;1770723;80;20992;-70
2022/06/07 02:54:52;;;;;;;32.05;20.57;;;;;;;13.93;69.10;100401.16;1790987;80;21109;-69
2022/06/07 02:57:19;;;;;;;27.15;17.12;;;;;;;13.97;69.15;100395.41;1773446;80;21926;-69
2022/06/07 02:59:46;;;;;;;24.63;15.70;;;;;;;14.04;69.24;100398.34;1770976;80;20948;-69
2022/06/07 03:02:14;;;;;;;20.45;13.00;;;;;;;14.11;69.31;100398.12;1782061;79;20995;-69
2022/06/07 03:04:40;;;;;;;16.37;10.48;;;;;;;14.16;69.31;100395.85;1767411;80;21055;-70
2022/06/07 03:07:07;;;;;;;16.82;10.63;;;;;;;14.20;69.28;100387.13;1779227;79;20960;-69
2022/06/07 03:09:35;;;;;;;14.10;10.05;;;;;;;14.26;69.37;100391.84;1762680;80;21416;-69
2022/06/07 03:12:04;;;;;;;16.75;11.12;;;;;;;14.31;69.37;100394.42;1748213;80;21045;-71
2022/06/07 03:14:31;;;;;;;20.45;13.03;;;;;;;14.36;69.32;100395.79;1769588;80;20993;-70
2022/06/07 03:17:00;;;;;;;21.80;12.93;;;;;;;14.43;69.27;100394.23;1764147;80;21506;-69
2022/06/07 03:19:29;;;;;;;18.40;13.08;;;;;;;14.49;69.26;100393.69;1762475;80;20921;-70
2022/06/07 03:21:56;;;;;;;16.00;11.00;;;;;;;14.55;69.29;100391.27;1786026;80;21810;-69
2022/06/07 03:24:22;;;;;;;15.90;9.73;;;;;;;14.63;69.32;100396.34;1769799;79;21443;-69
2022/06/07 03:26:50;;;;;;;14.83;9.28;;;;;;;14.70;69.25;100395.61;1791845;80;21004;-70
2022/06/07 03:29:17;;;;;;;13.68;8.90;;;;;;;14.78;69.26;100395.72;1758412;80;20968;-70
2022/06/07 03:31:44;;;;;;;10.78;5.80;;;;;;;14.87;69.30;100397.48;1776232;80;20944;-69
2022/06/07 03:34:13;;;;;;;8.55;6.42;;;;;;;14.97;69.68;100392.11;1765093;79;21924;-69
2022/06/07 03:36:41;;;;;;;14.38;9.33;;;;;;;15.04;69.69;100391.83;1759523;80;21059;-69
2022/06/07 03:39:09;;;;;;;15.68;10.68;;;;;;;15.14;69.84;100391.27;1759513;80;21051;-71
2022/06/07 03:41:37;;;;;;;12.70;8.75;;;;;;;15.24;69.90;100392.53;1746825;81;21008;-69
2022/06/07 03:44:09;;;;;;;19.80;11.83;;;;;;;15.35;70.14;100387.01;1771199;80;21553;-69
2022/06/07 03:46:41;;;;;;;16.23;9.98;;;;;;;15.48;70.16;100386.61;1759848;80;22341;-70
2022/06/07 03:49:08;;;;;;;22.17;12.53;;;;;;;15.64;70.08;100387.29;1724924;80;21589;-70
2022/06/07 03:51:35;;;;;;;15.20;8.48;;;;;;;15.79;69.95;100385.73;1741056;81;20972;-69
2022/06/07 03:54:03;;;;;;;13.80;8.33;;;;;;;15.93;69.69;100387.84;1761294;80;21014;-69
2022/06/07 03:56:31;;;;;;;9.93;6.60;;;;;;;16.08;69.49;100384.59;1756677;80;21075;-70
2022/06/07 03:58:59;;;;;;;6.42;4.75;;;;;;;16.21;69.02;100385.86;1753521;81;22543;-69
2022/06/07 04:01:26;;;;;;;5.95;4.00;;;;;;;16.35;68.53;100388.42;1770150;80;21533;-69
2022/06/07 04:03:57;;;;;;;9.55;3.60;;;;;;;16.48;68.03;100384.81;1764954;80;20988;-70
2022/06/07 04:06:34;;;;;;;7.58;3.17;;;;;;;16.62;67.48;100390.05;1766443;78;21431;-71
2022/06/07 04:09:03;;;;;;;4.97;3.00;;;;;;;16.77;66.97;100384.96;1763807;81;21022;-69
2022/06/07 04:11:31;;;;;;;5.58;2.85;;;;;;;16.93;66.40;100391.69;1761653;81;21901;-70
2022/06/07 04:13:59;;;;;;;3.95;2.70;;;;;;;17.08;65.86;100390.55;1741532;81;20940;-69
2022/06/07 04:16:29;;;;;;;5.08;2.52;;;;;;;17.23;65.44;100392.09;1762783;81;20977;-69
2022/06/07 04:19:00;;;;;;;3.33;1.97;;;;;;;17.35;64.94;100388.09;1743962;81;21076;-70
2022/06/07 04:21:27;;;;;;;4.47;2.30;;;;;;;17.47;64.58;100386.80;1757040;81;20953;-68
2022/06/07 04:23:56;;;;;;;4.92;2.60;;;;;;;17.62;64.08;100386.45;1748497;81;21942;-69
2022/06/07 04:26:25;;;;;;;8.43;2.47;;;;;;;17.77;63.59;100388.50;1774383;80;21398;-69
2022/06/07 04:28:52;;;;;;;5.83;2.52;;;;;;;17.89;63.17;100385.81;1768725;80;20988;-69
2022/06/07 04:31:23;;;;;;;3.52;2.60;;;;;;;18.03;62.65;100382.44;1778459;79;21030;-70
2022/06/07 04:33:56;;;;;;;4.72;2.30;;;;;;;18.15;62.21;100382.94;1791538;78;21018;-69
2022/06/07 04:36:26;;;;;;;2.93;2.23;;;;;;;18.30;61.96;100387.39;1770326;80;21873;-70
2022/06/07 04:38:57;;;;;;;5.40;2.40;;;;;;;18.43;61.72;100383.33;1795491;79;20988;-71
2022/06/07 04:41:30;;;;;;;5.47;2.58;;;;;;;18.55;61.37;100386.81;1774242;80;20988;-70
2022/06/07 04:44:00;;;;;;;2.70;2.12;;;;;;;18.68;61.24;100390.80;1764870;81;21027;-70
2022/06/07 04:46:30;;;;;;;2.42;1.85;;;;;;;18.79;60.71;100381.88;1784973;78;20952;-70
2022/06/07 04:49:00;;;;;;;6.97;2.30;;;;;;;18.91;59.79;100387.67;1790260;80;21012;-70
2022/06/07 04:51:32;;;;;;;6.28;2.80;;;;;;;19.02;59.27;100387.80;1779275;80;21100;-69
2022/06/07 04:54:02;;;;;;;2.87;2.15;;;;;;;19.12;58.98;100393.77;1781139;78;21503;-70
2022/06/07 04:56:35;;;;;;;3.72;2.20;;;;;;;19.23;58.78;100392.02;1782729;80;20968;-71
2022/06/07 04:59:04;;;;;;;5.10;2.08;;;;;;;19.34;58.43;100394.79;1771458;80;21000;-69
2022/06/07 05:01:39;;;;;;;6.85;2.33;;;;;;;19.44;58.12;100381.48;1731501;81;21917;-69
2022/06/07 05:04:09;;;;;;;3.83;1.90;;;;;;;19.55;57.97;100389.60;1720302;82;20976;-70
2022/06/07 05:06:41;;;;;;;4.25;1.90;;;;;;;19.67;57.79;100383.34;1702195;83;20975;-69
2022/06/07 05:09:17;;;;;;;7.15;2.30;;;;;;;19.78;57.62;100386.09;1720655;82;21015;-69
2022/06/07 05:11:47;;;;;;;4.47;2.00;;;;;;;19.88;57.17;100387.52;1722777;82;21040;-69
2022/06/07 05:14:13;;;;;;;3.67;2.20;;;;;;;19.98;56.85;100390.78;1726217;81;21918;-70
2022/06/07 05:16:42;;;;;;;3.92;2.12;;;;;;;20.08;56.70;100386.49;1755798;81;21008;-69
2022/06/07 05:19:12;;;;;;;3.05;2.10;;;;;;;20.17;56.68;100390.76;1744259;81;21007;-69
2022/06/07 05:21:38;;;;;;;4.45;2.05;;;;;;;20.28;56.44;100389.47;1744587;81;20959;-69
2022/06/07 05:24:06;;;;;;;3.80;2.20;;;;;;;20.36;56.00;100385.84;1748167;81;20933;-70
2022/06/07 05:26:48;;;;;;;3.60;2.30;;;;;;;20.44;55.87;100383.92;1739614;81;21450;-70
2022/06/07 05:29:27;;;;;;;4.35;1.92;;;;;;;20.53;55.64;100389.52;1712189;83;20945;-70
2022/06/07 05:31:55;;;;;;;6.90;1.90;;;;;;;20.65;54.88;100391.73;1747888;79;21004;-70
2022/06/07 05:34:22;;;;;;;3.00;1.92;;;;;;;20.74;54.50;100393.30;1713050;82;20995;-70
2022/06/07 05:36:51;;;;;;;3.62;1.67;;;;;;;20.84;54.09;100391.15;1717719;82;21443;-70
2022/06/07 05:39:27;;;;;;;6.50;1.72;;;;;;;20.92;52.71;100395.07;1719993;82;21895;-69
2022/06/07 05:41:56;;;;;;;2.67;1.62;;;;;;;20.98;51.97;100390.81;1727190;82;21472;-71
2022/06/07 05:44:24;;;;;;;5.53;1.82;;;;;;;21.04;51.94;100394.09;1761219;81;21035;-69
2022/06/07 05:46:53;;;;;;;4.72;2.17;;;;;;;21.14;51.78;100396.80;1718637;82;21061;-68
2022/06/07 05:49:22;;;;;;;4.50;2.10;;;;;;;21.23;51.57;100391.28;1726229;82;21013;-71
2022/06/07 05:51:57;;;;;;;4.37;2.00;;;;;;;21.31;51.63;100392.53;1708339;83;21967;-69
2022/06/07 05:54:24;;;;;;;3.20;2.00;;;;;;;21.42;51.84;100386.16;1721816;82;21474;-69
2022/06/07 05:56:51;;;;;;;2.17;1.98;;;;;;;21.52;50.64;100381.81;1746984;81;20995;-69
2022/06/07 05:59:18;;;;;;;6.70;2.65;;;;;;;21.62;50.42;100385.52;1718942;82;21027;-69
2022/06/07 06:01:45;;;;;;;6.03;2.10;;;;;;;21.71;49.97;100382.98;1739857;81;20949;-70
2022/06/07 06:04:14;;;;;;;3.42;1.92;;;;;;;21.81;49.75;100386.68;1727754;81;20981;-70
2022/06/07 06:06:43;;;;;;;5.37;1.92;;;;;;;21.90;49.36;100386.86;1783382;79;21115;-69
2022/06/07 06:11:56;;;;;;;3.42;1.50;;;;;;;22.14;48.64;100387.81;1784486;79;21347;-70
2022/06/07 06:14:26;;;;;;;3.60;1.52;;;;;;;22.25;48.33;100391.30;1729758;81;20945;-68
2022/06/07 06:16:55;;;;;;;2.40;1.75;;;;;;;22.36;47.13;100386.38;1734323;81;21831;-70
2022/06/07 06:19:23;;;;;;;4.12;2.10;;;;;;;22.43;47.20;100385.40;1735868;81;21061;-69
2022/06/07 06:21:50;;;;;;;3.45;1.90;;;;;;;22.52;48.84;100386.06;1753468;80;21038;-70
2022/06/07 06:24:17;;;;;;;4.30;1.90;;;;;;;22.62;49.63;100385.19;1717053;83;21000;-69
2022/06/07 06:26:44;;;;;;;4.70;1.62;;;;;;;22.71;49.45;100383.98;1751567;81;21070;-71
2022/06/07 06:29:13;;;;;;;9.40;1.90;;;;;;;22.80;50.12;100390.03;1730894;81;21954;-70
2022/06/07 06:31:40;;;;;;;2.58;1.57;;;;;;;22.88;50.23;100387.72;1758263;79;20997;-71
2022/06/07 06:34:09;;;;;;;2.75;1.87;;;;;;;22.99;50.30;100383.92;1780658;78;20974;-71
2022/06/07 06:36:35;;;;;;;4.78;1.67;;;;;;;23.13;50.22;100387.47;1764292;80;21447;-72
2022/06/07 06:39:05;;;;;;;2.45;1.47;;;;;;;23.24;48.82;100388.22;1776125;79;21257;-73
2022/06/07 06:41:33;;;;;;;2.33;1.40;;;;;;;23.32;48.38;100388.03;1757681;80;22461;-73
2022/06/07 06:44:01;;;;;;;3.33;1.40;;;;;;;23.42;48.11;100384.94;1765783;79;20960;-76
2022/06/07 06:46:36;;;;;;;1.82;1.07;;;;;;;23.50;46.84;100389.31;1735763;81;21086;-74
2022/06/07 06:49:03;;;;;;;2.65;1.30;;;;;;;23.54;46.45;100387.84;1757569;80;21039;-75
2022/06/07 06:51:31;;;;;;;5.83;1.40;;;;;;;23.59;46.01;100391.63;1763563;80;21031;-76
2022/06/07 06:54:00;;;;;;;3.33;1.30;;;;;;;23.68;45.57;100383.66;1764589;80;21905;-72
2022/06/07 06:56:34;;;;;;;1.10;0.90;;;;;;;23.81;45.42;100383.33;1761524;80;21498;-71
2022/06/07 06:59:03;;;;;;;4.83;1.15;;;;;;;23.93;43.53;100378.96;1784817;79;21031;-73
2022/06/07 07:01:33;;;;;;;1.75;0.90;;;;;;;24.02;41.98;100375.53;1785237;80;21016;-72
2022/06/07 07:04:05;;;;;;;2.40;0.90;;;;;;;24.09;41.18;100377.70;1772555;79;21058;-74
2022/06/07 07:06:33;;;;;;;2.95;0.90;;;;;;;24.15;40.99;100382.28;1785342;79;22324;-74
2022/06/07 07:09:03;;;;;;;4.83;1.07;;;;;;;24.24;39.96;100374.27;1737250;80;21066;-73
2022/06/07 07:11:41;;;;;;;1.90;0.98;;;;;;;24.26;40.63;100374.88;1782591;80;21039;-72
2022/06/07 07:14:09;;;;;;;1.98;0.90;;;;;;;24.31;40.50;100380.98;1763576;78;21090;-71
2022/06/07 07:16:42;;;;;;;2.55;0.90;;;;;;;24.37;40.16;100379.66;1794032;80;21039;-73
2022/06/07 07:19:09;;;;;;;1.77;0.85;;;;;;;24.46;39.70;100373.52;1794641;80;22534;-72
2022/06/07 07:21:41;;;;;;;2.90;0.93;;;;;;;24.55;40.03;100371.71;1762118;81;21357;-73
2022/06/07 07:24:20;;;;;;;3.22;0.72;;;;;;;24.67;39.65;100372.39;1760206;79;21446;-71
2022/06/07 07:26:49;;;;;;;3.33;0.90;;;;;;;24.78;39.34;100381.17;1725508;82;21526;-72
2022/06/07 07:29:19;;;;;;;1.35;0.90;;;;;;;24.88;39.04;100372.08;1741148;81;21106;-72
2022/06/07 07:31:48;;;;;;;1.57;0.80;;;;;;;24.95;38.08;100378.81;1750001;80;21884;-72
2022/06/07 07:34:17;;;;;;;2.72;0.95;;;;;;;25.01;38.19;100381.49;1755909;81;21078;-74
2022/06/07 07:36:50;;;;;;;3.12;0.80;;;;;;;25.08;38.21;100375.54;1776979;80;21019;-72
2022/06/07 07:39:17;;;;;;;2.12;0.90;;;;;;;25.14;37.28;100378.44;1788726;78;21490;-79
2022/06/07 07:41:46;;;;;;;1.17;0.75;;;;;;;25.19;36.98;100375.41;1780794;78;21026;-75
2022/06/07 07:44:14;;;;;;;1.57;0.70;;;;;;;25.24;37.90;100372.03;1782021;80;22192;-71
2022/06/07 07:46:43;;;;;;;1.65;0.80;;;;;;;25.35;37.17;100365.92;1770193;78;21410;-73
2022/06/07 07:49:15;;;;;;;2.15;0.78;;;;;;;25.44;36.30;100369.19;1760892;80;21067;-73
2022/06/07 07:51:44;;;;;;;2.65;0.90;;;;;;;25.50;36.31;100369.16;1751301;80;21129;-72
2022/06/07 07:54:14;;;;;;;1.37;0.80;;;;;;;25.59;35.33;100371.06;1764028;80;21000;-74
2022/06/07 07:56:40;;;;;;;2.87;0.80;;;;;;;25.64;34.87;100372.56;1737881;80;21954;-71
2022/06/07 07:59:08;;;;;;;1.55;0.70;;;;;;;25.73;34.00;100375.86;1778929;80;20921;-70
2022/06/07 08:01:36;;;;;;;1.98;0.80;;;;;;;25.76;33.47;100374.06;1757346;81;20933;-72
2022/06/07 08:04:04;;;;;;;0.95;0.60;;;;;;;25.78;33.12;100374.69;1759317;81;21037;-72
2022/06/07 08:06:35;;;;;;;2.72;0.70;;;;;;;25.79;32.37;100377.70;1764011;80;21470;-71
2022/06/07 08:09:04;;;;;;;2.10;0.80;;;;;;;25.73;32.61;100379.92;1788302;79;22585;-78
2022/06/07 08:11:34;;;;;;;1.30;0.88;;;;;;;25.67;32.53;100378.38;1773104;80;21035;-71
2022/06/07 08:14:06;;;;;;;0.95;0.70;;;;;;;25.63;32.24;100383.09;1757661;80;21015;-76
2022/06/07 08:16:34;;;;;;;3.62;0.80;;;;;;;25.58;32.02;100371.59;1785395;79;21000;-72
2022/06/07 08:19:01;;;;;;;0.80;0.70;;;;;;;25.47;32.25;100372.27;1777732;78;21036;-72
2022/06/07 08:21:30;;;;;;;1.40;0.82;;;;;;;25.46;33.14;100376.03;1773299;80;21884;-74
2022/06/07 08:23:57;;;;;;;2.25;0.90;;;;;;;25.62;33.61;100380.08;1782992;80;20992;-72
2022/06/07 08:26:26;;;;;;;3.75;0.90;;;;;;;25.79;32.71;100379.05;1781590;80;21098;-73
2022/06/07 08:28:54;;;;;;;1.05;0.80;;;;;;;25.84;32.42;100371.08;1782093;78;21044;-74
2022/06/07 08:31:24;;;;;;;3.33;0.90;;;;;;;25.87;31.20;100366.59;1786157;78;21039;-71
2022/06/07 08:39:25;;;;;;;3.20;0.90;;;;;;;26.08;32.59;100364.83;1766544;79;21346;-72
2022/06/07 08:42:03;;;;;;;2.52;0.80;;;;;;;26.23;32.16;100363.92;1783860;78;21027;-71
2022/06/07 08:45:01;;;;;;;1.32;0.72;;;;;;;26.39;31.80;100359.01;1768902;79;21422;-72
2022/06/07 08:47:48;;;;;;;2.67;0.93;;;;;;;26.41;32.16;100371.27;1777649;78;22728;-73
2022/06/07 08:50:32;;;;;;;1.25;0.80;;;;;;;26.47;32.78;100366.30;1796274;79;21031;-72
2022/06/07 08:53:01;;;;;;;;;;;;;;;26.55;32.83;100362.47;1768747;81;20943;-72
2022/06/07 08:55:36;;;;;;;1.40;0.90;;;;;;;26.60;32.60;100359.07;1769487;79;20446;-72
2022/06/07 08:58:24;;;;;;;2.02;0.98;;;;;;;26.60;31.97;100360.42;1773363;79;21027;-74
2022/06/07 09:00:58;;;;;;;1.62;0.85;;;;;;;26.62;32.17;100359.13;1766180;81;21891;-72
2022/06/07 09:04:12;;;;;;;1.30;0.90;;;;;;;26.72;31.94;100359.95;1766080;80;21070;-72
2022/06/07 09:06:44;;;;;;;1.65;0.90;;;;;;;26.78;32.14;100363.94;1778444;79;21022;-73
2022/06/07 09:09:13;;;;;;;3.77;0.82;;;;;;;26.94;32.10;100355.72;1751049;81;21046;-73
2022/06/07 09:12:14;;;;;;;1.60;0.88;;;;;;;27.09;32.41;100353.43;1766434;81;21015;-74
2022/06/07 09:14:53;;;;;;;3.75;0.90;;;;;;;27.27;31.97;100355.25;1794401;79;21465;-76
2022/06/07 09:17:36;;;;;;;1.02;0.88;;;;;;;27.43;31.49;100359.20;1794820;79;21418;-73
2022/06/07 09:20:09;;;;;;;2.77;0.98;;;;;;;27.50;31.52;100355.83;1797632;79;21015;-72
2022/06/07 09:22:58;;;;;;;1.15;0.90;;;;;;;27.55;30.86;100355.14;1795795;78;21016;-73
2022/06/07 09:25:30;;;;;;;1.37;0.70;;;;;;;27.51;30.45;100360.22;1778443;79;20936;-72
2022/06/07 09:27:58;;;;;;;2.17;0.80;;;;;;;27.40;30.73;100350.15;1782665;79;21954;-72
2022/06/07 09:30:32;;;;;;;4.33;0.90;;;;;;;27.37;31.80;100345.20;1766845;79;22144;-72
2022/06/07 09:33:30;;;;;;;4.03;0.95;;;;;;;27.50;31.06;100347.69;1731186;81;21549;-72
2022/06/07 09:36:11;;;;;;;4.70;1.10;;;;;;;27.60;30.72;100348.47;1734113;81;21011;-72
2022/06/07 09:38:41;;;;;;;2.08;0.70;;;;;;;27.71;31.63;100346.36;1734103;82;21138;-77
2022/06/07 09:41:40;;;;;;;0.80;0.80;;;;;;;27.92;30.53;100338.16;1749321;81;21812;-72
2022/06/07 09:44:38;;;;;;;1.10;0.80;;;;;;;28.02;30.79;100338.38;1713948;82;21017;-72
2022/06/07 09:47:18;;;;;;;2.90;0.90;;;;;;;28.17;30.37;100333.81;1734287;81;20995;-73
2022/06/07 09:49:56;;;;;;;1.98;1.02;;;;;;;28.34;30.02;100332.05;1729526;82;21058;-70
2022/06/07 09:52:42;;;;;;;2.85;1.00;;;;;;;28.46;30.28;100322.50;1702013;81;21035;-72
2022/06/07 09:55:24;;;;;;;1.95;0.82;;;;;;;28.62;29.57;100327.72;1731660;81;22152;-71
2022/06/07 09:58:41;;;;;;;3.77;1.10;;;;;;;28.67;30.28;100331.38;1739713;82;21583;-72
2022/06/07 10:01:22;;;;;;;0.85;0.78;;;;;;;28.76;30.22;100325.03;1727427;83;21070;-73
2022/06/07 10:04:26;;;;;;;2.17;0.70;;;;;;;28.96;29.29;100326.80;1717589;81;21164;-75
2022/06/07 10:06:59;;;;;;;2.35;0.80;;;;;;;29.03;28.58;100316.57;1698944;84;21094;-73
2022/06/07 10:10:08;;;;;;;;;;;;;;;29.03;28.58;100316.57;1714810;82;22572;-72
2022/06/07 10:13:01;;;;;;;2.60;0.88;;;;;;;28.96;29.11;100324.08;1711123;83;20800;-73
2022/06/07 10:15:42;;;;;;;3.62;0.90;;;;;;;29.02;28.17;100319.00;1697487;81;21075;-73
2022/06/07 10:18:32;;;;;;;2.12;0.88;;;;;;;29.00;28.83;100312.98;1747450;81;21020;-71
2022/06/07 10:21:28;;;;;;;1.90;0.90;;;;;;;29.19;29.45;100311.41;1749066;81;21044;-73
2022/06/07 10:24:12;;;;;;;1.37;0.98;;;;;;;29.49;30.16;100312.48;1725234;81;21944;-72
2022/06/07 10:27:04;;;;;;;1.15;0.90;;;;;;;29.80;28.50;100311.87;1720358;81;21020;-71
2022/06/07 10:30:14;;;;;;;1.17;0.90;;;;;;;29.89;28.55;100312.27;1749240;81;21050;-73
2022/06/07 10:33:17;;;;;;;2.70;1.20;;;;;;;30.03;28.67;100305.41;1755393;79;21012;-73
2022/06/07 10:36:15;;;;;;;19.60;2.08;;;;;;;30.13;27.87;100302.85;1797650;79;21019;-70
2022/06/07 10:38:53;;;;;;;3.22;0.90;;;;;;;30.15;27.19;100308.05;1779603;79;21900;-70
2022/06/07 10:41:32;;;;;;;0.82;0.80;;;;;;;30.23;27.71;100306.25;1778926;79;21043;-71
2022/06/07 10:44:33;;;;;;;6.62;1.17;;;;;;;30.25;28.13;100310.08;1765522;80;21431;-71
2022/06/07 10:47:20;;;;;;;2.65;0.88;;;;;;;30.26;28.60;100303.55;1755475;79;21086;-73
2022/06/07 10:50:03;;;;;;;1.02;0.90;;;;;;;30.43;27.95;100305.14;1741442;81;21446;-71
2022/06/07 10:52:44;;;;;;;5.03;0.82;;;;;;;30.63;27.78;100305.91;1747726;79;22554;-71
2022/06/07 10:55:31;;;;;;;2.72;0.82;;;;;;;30.65;27.31;100306.50;1764731;79;20934;-72
2022/06/07 10:58:04;;;;;;;0.70;0.70;;;;;;;30.55;27.06;100303.63;1766900;79;21082;-73
2022/06/07 11:00:34;;;;;;;;;;;;;;;30.27;27.07;100308.73;1793804;79;21024;-76
2022/06/07 11:03:41;;;;;;;10.88;1.00;;;;;;;29.95;27.62;100296.84;1795873;79;20169;-71
2022/06/07 11:09:20;;;;;;;3.37;0.93;;;;;;;30.16;28.03;100294.16;1764370;81;21016;-72
2022/06/07 11:11:56;;;;;;;2.80;0.90;;;;;;;30.19;27.79;100292.28;1782936;79;21446;-71
2022/06/07 11:15:14;;;;;;;1.92;0.80;;;;;;;30.38;27.93;100289.25;1797084;79;21498;-71
2022/06/07 11:17:58;;;;;;;4.53;1.00;;;;;;;30.55;26.69;100288.64;1797839;79;21019;-72
2022/06/07 11:20:28;;;;;;;1.05;0.88;;;;;;;30.39;27.12;100286.80;1797798;79;22591;-71
2022/06/07 11:23:30;;;;;;;2.52;0.90;;;;;;;30.44;26.78;100286.34;1781985;79;20978;-71
2022/06/07 11:26:09;;;;;;;1.20;0.90;;;;;;;30.46;27.22;100277.36;1798061;79;21506;-70
2022/06/07 11:28:43;;;;;;;1.25;0.78;;;;;;;30.34;28.01;100279.41;1792863;79;21024;-71
2022/06/07 11:31:39;;;;;;;2.00;1.02;;;;;;;30.44;27.76;100275.98;1797254;79;21007;-71
2022/06/07 11:34:33;;;;;;;2.80;0.90;;;;;;;30.63;27.31;100285.46;1790683;79;21893;-70
2022/06/07 11:37:11;;;;;;;1.82;0.80;;;;;;;30.76;27.65;100281.53;1786999;80;21762;-71
2022/06/07 11:39:52;;;;;;;5.37;1.20;;;;;;;31.05;26.70;100280.72;1778131;80;21046;-71
2022/06/07 11:42:34;;;;;;;5.12;1.00;;;;;;;31.08;26.53;100274.77;1777361;80;21066;-71
2022/06/07 11:45:26;;;;;;;1.60;0.78;;;;;;;31.22;26.83;100275.99;1757534;81;21023;-72
2022/06/07 11:48:10;;;;;;;0.80;0.80;;;;;;;31.43;26.39;100278.33;1770160;80;21015;-75
2022/06/07 11:50:50;;;;;;;5.35;0.95;;;;;;;31.37;25.71;100275.30;1781260;80;21027;-72
2022/06/07 11:53:31;;;;;;;1.42;0.78;;;;;;;31.09;26.58;100274.22;1788432;79;21001;-72
2022/06/07 11:56:21;;;;;;;2.08;0.82;;;;;;;30.92;26.43;100266.15;1784307;80;21137;-71
2022/06/07 11:59:00;;;;;;;3.67;1.05;;;;;;;30.89;27.12;100259.86;1778602;80;20897;-72
2022/06/07 12:01:44;;;;;;;1.87;0.80;;;;;;;31.24;26.63;100262.91;1755870;78;21897;-74
2022/06/07 12:04:43;;;;;;;1.70;0.80;;;;;;;31.36;26.21;100255.89;1741408;81;21070;-71
2022/06/07 12:07:32;;;;;;;1.98;0.90;;;;;;;31.48;26.32;100257.91;1746692;81;21039;-71